Time;durP1;ratioP1;P1;durP2;ratioP2;P2;SDS_P1;SDS_P2;PMS_P1;PMS_P2;Temp;Humidity;BMP_temperature;BMP_pressure;BME280_temperature;BME280_humidity;BME280_pressure;Samples;Min_cycle;Max_cycle;Signal;HPM_P1;HPM_P2
2022/11/10 00:02:15;;;;;;;3.83;3.53;;;;;;;11.46;100.00;97056.03;5059728;28;20729;-57
2022/11/10 00:04:42;;;;;;;3.77;3.47;;;;;;;11.45;100.00;97060.50;5066269;28;20294;-57
2022/11/10 00:07:08;;;;;;;3.97;3.57;;;;;;;11.48;100.00;97060.22;5056025;28;20710;-56
2022/11/10 00:09:36;;;;;;;3.67;3.37;;;;;;;11.46;100.00;97070.13;5054147;28;20219;-57
2022/11/10 00:12:03;;;;;;;3.07;2.87;;;;;;;11.45;100.00;97070.25;5054797;28;20242;-58
2022/11/10 00:17:14;;;;;;;3.30;3.10;;;;;;;11.45;100.00;97078.19;5054686;28;20206;-56
2022/11/10 00:19:40;;;;;;;3.83;3.60;;;;;;;11.43;100.00;97072.19;5054194;28;20298;-57
2022/11/10 00:22:08;;;;;;;3.30;3.10;;;;;;;11.46;100.00;97077.22;5053822;28;20326;-57
2022/11/10 00:24:36;;;;;;;3.60;3.30;;;;;;;11.46;100.00;97082.50;5056585;28;20238;-57
2022/11/10 00:27:03;;;;;;;3.87;3.57;;;;;;;11.47;100.00;97082.38;5054017;28;20248;-57
2022/11/10 00:29:30;;;;;;;2.97;2.80;;;;;;;11.47;100.00;97081.56;5053676;28;20293;-56
2022/11/10 00:31:57;;;;;;;3.40;3.07;;;;;;;11.47;100.00;97089.50;5056012;28;20275;-57
2022/11/10 00:34:25;;;;;;;3.10;2.90;;;;;;;11.48;100.00;97096.44;5058183;28;20645;-58
2022/11/10 00:36:53;;;;;;;3.40;3.10;;;;;;;11.47;100.00;97102.72;5057952;28;20290;-57
2022/11/10 00:39:19;;;;;;;3.30;3.10;;;;;;;11.46;100.00;97098.41;5057634;28;20298;-57
2022/11/10 00:41:48;;;;;;;3.30;3.00;;;;;;;11.46;100.00;97103.69;5060460;28;20310;-57
2022/11/10 00:44:14;;;;;;;3.47;3.27;;;;;;;11.42;100.00;97099.66;5057795;28;20199;-57
2022/11/10 00:46:41;;;;;;;3.30;3.10;;;;;;;11.40;100.00;97104.25;5057946;28;20294;-56
2022/11/10 00:49:07;;;;;;;4.57;3.10;;;;;;;11.39;100.00;97108.72;5056940;28;20258;-56
2022/11/10 00:51:34;;;;;;;3.53;3.33;;;;;;;11.37;100.00;97112.47;5057382;28;20230;-57
2022/11/10 00:54:01;;;;;;;3.60;3.30;;;;;;;11.37;100.00;97115.94;5057510;28;20303;-58
2022/11/10 00:56:28;;;;;;;3.47;3.17;;;;;;;11.36;100.00;97122.22;5057661;28;20766;-57
2022/11/10 00:58:56;;;;;;;4.20;3.90;;;;;;;11.38;100.00;97127.38;5057147;28;20235;-56
2022/11/10 01:01:24;;;;;;;5.57;5.17;;;;;;;11.38;100.00;97132.66;5057122;28;20254;-58
2022/11/10 01:03:51;;;;;;;5.07;4.67;;;;;;;11.35;100.00;97132.94;5057487;28;20628;-58
2022/11/10 01:06:19;;;;;;;5.57;5.07;;;;;;;11.35;100.00;97143.53;5058089;28;20246;-57
2022/11/10 01:08:46;;;;;;;6.13;5.60;;;;;;;11.34;100.00;97136.56;5071199;28;20298;-57
2022/11/10 01:11:15;;;;;;;5.70;5.17;;;;;;;11.32;100.00;97149.09;5057482;28;20246;-57
2022/11/10 01:13:44;;;;;;;6.13;5.53;;;;;;;11.31;100.00;97142.13;5060122;28;20282;-57
2022/11/10 01:16:16;;;;;;;6.47;5.87;;;;;;;11.32;100.00;97143.81;5058419;28;20285;-57
2022/11/10 01:18:43;;;;;;;5.93;5.43;;;;;;;11.33;100.00;97141.03;5057432;28;20231;-56
2022/11/10 01:21:10;;;;;;;6.10;5.60;;;;;;;11.31;100.00;97148.25;5056772;28;20206;-57
2022/11/10 01:23:36;;;;;;;6.60;5.43;;;;;;;11.33;100.00;97151.63;5057185;28;20286;-57
2022/11/10 01:26:05;;;;;;;6.17;5.67;;;;;;;11.33;100.00;97150.78;5057397;28;20234;-57
2022/11/10 01:28:33;;;;;;;6.00;5.33;;;;;;;11.36;100.00;97139.94;5056531;28;20235;-58
2022/11/10 01:31:00;;;;;;;6.20;5.80;;;;;;;11.34;100.00;97147.16;5056323;28;20286;-58
2022/11/10 01:33:29;;;;;;;5.87;5.47;;;;;;;11.35;100.00;97152.31;5056679;28;20281;-57
2022/11/10 01:35:55;;;;;;;6.20;5.70;;;;;;;11.34;100.00;97148.00;5056768;28;20234;-56
2022/11/10 01:38:22;;;;;;;5.50;5.00;;;;;;;11.33;100.00;97156.09;5056962;28;20361;-57
2022/11/10 01:40:49;;;;;;;5.13;4.73;;;;;;;11.30;100.00;97153.72;5058786;28;20293;-57
2022/11/10 01:43:16;;;;;;;5.20;4.90;;;;;;;11.30;100.00;97157.16;5056271;28;20317;-57
2022/11/10 01:45:52;;;;;;;5.23;4.80;;;;;;;11.32;100.00;97159.69;5057058;28;20286;-58
2022/11/10 01:48:26;;;;;;;5.80;5.23;;;;;;;11.28;100.00;97160.94;5057952;28;20321;-56
2022/11/10 01:50:55;;;;;;;5.30;4.90;;;;;;;11.31;100.00;97158.00;5057950;28;20246;-56
2022/11/10 01:53:25;;;;;;;5.70;5.20;;;;;;;11.25;100.00;97174.44;5055926;28;20254;-57
2022/11/10 01:55:52;;;;;;;5.20;4.70;;;;;;;11.27;100.00;97172.50;5056858;28;20302;-57
2022/11/10 01:58:20;;;;;;;5.67;4.83;;;;;;;11.27;100.00;97177.78;5056695;28;20243;-57
2022/11/10 02:00:47;;;;;;;5.47;5.07;;;;;;;11.27;100.00;97164.53;5056288;28;20270;-57
2022/11/10 02:03:16;;;;;;;4.63;4.23;;;;;;;11.27;100.00;97172.50;5058892;28;20341;-57
2022/11/10 02:05:44;;;;;;;5.03;4.17;;;;;;;11.29;100.00;97176.69;5058349;28;20250;-57
2022/11/10 02:08:12;;;;;;;5.80;5.07;;;;;;;11.24;100.00;97172.75;5056946;28;20269;-56
2022/11/10 02:10:39;;;;;;;5.30;4.90;;;;;;;11.23;100.00;97160.53;5056805;28;20597;-56
2022/11/10 02:13:06;;;;;;;5.60;4.87;;;;;;;11.24;100.00;97159.53;5056352;28;20238;-57
2022/11/10 02:15:33;;;;;;;5.00;4.60;;;;;;;11.24;100.00;97162.16;5057081;28;20196;-55
2022/11/10 02:18:00;;;;;;;4.97;4.57;;;;;;;11.26;100.00;97170.84;5056371;28;20642;-57
2022/11/10 02:20:26;;;;;;;5.47;4.60;;;;;;;11.28;100.00;97180.31;5056229;28;20213;-57
2022/11/10 02:22:56;;;;;;;5.20;4.70;;;;;;;11.28;100.00;97179.47;5055837;28;20254;-57
2022/11/10 02:25:23;;;;;;;4.67;4.23;;;;;;;11.27;100.00;97177.78;5060282;28;20238;-57
2022/11/10 02:27:49;;;;;;;4.90;4.50;;;;;;;11.24;100.00;97178.06;5081543;28;20246;-58
2022/11/10 02:30:16;;;;;;;5.00;4.60;;;;;;;11.25;100.00;97179.75;5059746;28;20606;-57
2022/11/10 02:32:43;;;;;;;4.63;4.23;;;;;;;11.22;100.00;97182.66;5059007;28;20263;-57
2022/11/10 02:35:10;;;;;;;5.27;4.87;;;;;;;11.23;100.00;97187.00;5056251;28;20239;-56
2022/11/10 02:37:36;;;;;;;4.87;4.47;;;;;;;11.18;100.00;97191.84;5054750;28;20330;-56
2022/11/10 02:40:06;;;;;;;5.27;4.77;;;;;;;11.16;100.00;97188.50;5055271;28;20695;-57
2022/11/10 02:42:32;;;;;;;5.27;4.87;;;;;;;11.15;100.00;97192.09;5057762;28;20739;-57
2022/11/10 02:44:59;;;;;;;4.67;4.27;;;;;;;11.18;100.00;97194.47;5055764;28;20290;-56
2022/11/10 02:47:26;;;;;;;5.10;4.70;;;;;;;11.11;100.00;97198.63;5055656;28;20617;-58
2022/11/10 02:49:53;;;;;;;5.20;4.57;;;;;;;11.06;100.00;97201.66;5055413;28;20368;-56
2022/11/10 02:52:20;;;;;;;5.37;4.67;;;;;;;11.10;100.00;97204.88;5054993;28;20215;-57
2022/11/10 02:54:46;;;;;;;6.77;4.80;;;;;;;11.07;100.00;97213.94;5059338;28;20265;-56
2022/11/10 02:57:15;;;;;;;5.50;5.00;;;;;;;11.06;100.00;97208.75;5066046;28;20246;-57
2022/11/10 02:59:42;;;;;;;5.10;4.70;;;;;;;11.03;100.00;97211.69;5078089;28;20235;-57
2022/11/10 03:02:08;;;;;;;5.27;4.77;;;;;;;11.02;100.00;97220.63;5063548;28;20568;-57
2022/11/10 03:04:35;;;;;;;4.63;4.20;;;;;;;10.93;100.00;97228.38;5055327;28;20302;-57
2022/11/10 03:07:02;;;;;;;4.97;4.50;;;;;;;10.92;100.00;97233.78;5055393;28;20302;-57
2022/11/10 03:09:28;;;;;;;4.77;4.37;;;;;;;10.91;100.00;97240.88;5054811;28;20252;-56
2022/11/10 03:11:55;;;;;;;5.57;4.80;;;;;;;10.88;100.00;97241.13;5054368;28;20595;-57
2022/11/10 03:14:23;;;;;;;5.27;4.73;;;;;;;10.89;100.00;97253.41;5054848;28;20703;-56
2022/11/10 03:16:50;;;;;;;4.80;4.40;;;;;;;10.84;100.00;97250.28;5055229;28;20246;-56
2022/11/10 03:19:16;;;;;;;5.20;4.80;;;;;;;10.86;100.00;97253.66;5055056;28;20302;-57
2022/11/10 03:21:43;;;;;;;4.80;4.47;;;;;;;10.82;100.00;97262.81;5053936;28;20399;-56
2022/11/10 03:24:10;;;;;;;5.30;4.80;;;;;;;10.82;100.00;97262.81;5054479;28;20627;-57
2022/11/10 03:26:37;;;;;;;4.90;4.50;;;;;;;10.82;100.00;97267.28;5055082;28;20294;-56
2022/11/10 03:29:05;;;;;;;5.23;4.40;;;;;;;10.83;100.00;97274.25;5055060;28;20246;-56
2022/11/10 03:31:33;;;;;;;6.07;4.87;;;;;;;10.77;100.00;97272.94;5054218;28;20321;-57
2022/11/10 03:33:59;;;;;;;6.30;4.57;;;;;;;10.75;100.00;97274.06;5054493;28;20226;-57
2022/11/10 03:36:26;;;;;;;5.07;4.57;;;;;;;10.69;100.00;97272.78;5055335;28;20587;-56
2022/11/10 03:38:53;;;;;;;5.97;5.37;;;;;;;10.66;100.00;97277.47;5055003;28;20246;-57
2022/11/10 03:41:20;;;;;;;5.20;4.77;;;;;;;10.63;100.00;97270.63;5057451;28;20292;-57
2022/11/10 03:43:47;;;;;;;5.27;4.87;;;;;;;10.58;100.00;97286.06;5060833;28;20308;-57
2022/11/10 03:46:14;;;;;;;4.87;4.47;;;;;;;10.58;100.00;97295.78;5057203;28;20202;-56
2022/11/10 03:48:42;;;;;;;5.23;4.80;;;;;;;10.52;100.00;97297.16;5054959;28;20352;-57
2022/11/10 03:51:11;;;;;;;4.87;4.43;;;;;;;10.55;100.00;97296.88;5054280;28;20298;-57
2022/11/10 03:53:38;;;;;;;5.03;4.27;;;;;;;10.57;100.00;97305.53;5054979;28;20265;-57
2022/11/10 03:56:05;;;;;;;4.83;4.10;;;;;;;10.58;100.00;97301.91;5057758;28;20235;-58
2022/11/10 03:58:33;;;;;;;4.13;3.83;;;;;;;10.57;100.00;97305.53;5061565;28;20238;-56
2022/11/10 04:01:00;;;;;;;4.53;4.03;;;;;;;10.54;100.00;97311.06;5061223;28;20234;-57
2022/11/10 04:03:27;;;;;;;4.57;4.17;;;;;;;10.54;100.00;97311.06;5067607;28;20250;-57
2022/11/10 04:20:14;;;;;;;8.50;4.27;;;;;;;10.23;100.00;97323.31;5064589;28;20293;-57
2022/11/10 04:25:28;;;;;;;4.00;3.70;;;;;;;10.04;100.00;97335.44;5071743;28;20205;-57
2022/11/10 04:27:55;;;;;;;4.40;4.00;;;;;;;9.98;100.00;97335.00;5090983;28;20218;-58
2022/11/10 04:30:33;;;;;;;5.47;4.00;;;;;;;9.92;100.00;97338.09;5088107;28;20203;-57
2022/11/10 04:33:26;;;;;;;4.47;4.07;;;;;;;9.95;100.00;97345.78;5069115;28;20226;-58
2022/11/10 04:35:58;;;;;;;5.03;3.83;;;;;;;9.93;100.00;97353.00;5080629;28;20545;-56
2022/11/10 04:38:38;;;;;;;6.20;4.20;;;;;;;9.93;100.00;97355.63;5055495;28;20210;-55
2022/11/10 04:44:13;;;;;;;8.83;3.97;;;;;;;9.98;100.00;97358.78;5068419;28;20234;-57
2022/11/10 04:46:59;;;;;;;4.17;3.80;;;;;;;10.02;100.00;97359.38;5023745;28;20707;-58
2022/11/10 04:54:54;;;;;;;4.30;4.00;;;;;;;10.03;100.00;97368.94;5072238;28;20560;-57
2022/11/10 04:57:24;;;;;;;4.23;3.93;;;;;;;10.05;100.00;97371.50;5071129;28;20207;-57
2022/11/10 05:00:09;;;;;;;4.70;4.30;;;;;;;10.07;100.00;97382.75;5071314;28;20214;-57
2022/11/10 05:02:38;;;;;;;3.93;3.57;;;;;;;10.11;100.00;97374.47;5057756;28;20227;-56
2022/11/10 05:05:07;;;;;;;6.20;4.43;;;;;;;10.11;100.00;97382.41;5057541;28;20281;-56
2022/11/10 05:07:39;;;;;;;4.40;4.00;;;;;;;10.12;100.00;97380.59;5057371;28;20329;-57
2022/11/10 05:10:17;;;;;;;6.80;3.90;;;;;;;10.11;100.00;97376.28;5057214;28;20207;-57
2022/11/10 05:13:39;;;;;;;5.40;4.47;;;;;;;10.08;100.00;97379.16;5056527;28;20202;-55
2022/11/10 05:16:39;;;;;;;5.33;4.60;;;;;;;10.11;100.00;97387.69;5053717;28;20199;-56
2022/11/10 05:22:01;;;;;;;4.73;3.97;;;;;;;9.97;100.00;97394.06;5049960;28;20206;-56
2022/11/10 05:24:29;;;;;;;5.17;4.03;;;;;;;9.98;100.00;97393.13;5060549;28;20308;-57
2022/11/10 05:27:03;;;;;;;13.93;10.13;;;;;;;9.99;100.00;97391.28;5056826;28;20241;-58
2022/11/10 05:29:37;;;;;;;7.37;6.57;;;;;;;9.98;100.00;97390.47;5056774;28;20651;-57
2022/11/10 05:32:23;;;;;;;6.37;4.77;;;;;;;10.00;100.00;97390.34;5054528;28;20724;-58
2022/11/10 05:34:58;;;;;;;5.20;4.33;;;;;;;10.01;100.00;97394.66;5052727;28;20711;-57
2022/11/10 05:37:31;;;;;;;3.83;3.53;;;;;;;9.99;100.00;97405.34;5056341;28;20211;-57
2022/11/10 05:39:58;;;;;;;4.30;3.83;;;;;;;10.02;100.00;97415.66;5056512;28;20238;-57
2022/11/10 05:42:31;;;;;;;3.70;3.47;;;;;;;10.07;100.00;97425.03;5059086;28;20235;-57
2022/11/10 05:45:00;;;;;;;4.10;3.63;;;;;;;10.02;100.00;97442.09;5055998;28;20679;-56
2022/11/10 05:47:36;;;;;;;3.90;3.60;;;;;;;10.08;100.00;97446.06;5056542;28;20211;-55
2022/11/10 05:52:54;;;;;;;6.07;4.07;;;;;;;10.02;100.00;97446.56;5057811;28;20276;-55
2022/11/10 05:55:37;;;;;;;4.40;3.97;;;;;;;10.04;100.00;97443.78;5074918;28;20488;-55
2022/11/10 05:58:07;;;;;;;4.23;3.83;;;;;;;10.03;100.00;97453.50;5074726;28;20210;-56
2022/11/10 06:00:41;;;;;;;4.10;3.50;;;;;;;10.09;100.00;97446.94;5073500;28;20595;-55
2022/11/10 06:03:15;;;;;;;3.90;3.60;;;;;;;10.07;100.00;97456.75;5058255;28;20254;-55
2022/11/10 06:05:42;;;;;;;4.97;3.50;;;;;;;10.05;100.00;97464.81;5063064;28;20201;-54
2022/11/10 06:08:09;;;;;;;3.97;3.67;;;;;;;10.04;100.00;97462.28;5060941;28;20219;-56
2022/11/10 06:10:36;;;;;;;5.03;4.00;;;;;;;10.04;100.00;97463.13;5073433;28;20237;-54
2022/11/10 06:13:04;;;;;;;7.63;4.50;;;;;;;9.99;100.00;97468.75;5076394;28;20199;-55
2022/11/10 06:15:31;;;;;;;5.20;4.20;;;;;;;10.00;100.00;97469.59;5070244;28;20267;-55
2022/11/10 06:17:59;;;;;;;5.40;4.00;;;;;;;9.95;100.00;97474.44;5056107;28;20308;-55
2022/11/10 06:20:26;;;;;;;5.80;4.63;;;;;;;9.89;100.00;97482.81;5069615;28;20206;-56
2022/11/10 06:23:03;;;;;;;5.33;4.17;;;;;;;9.85;100.00;97482.19;5055841;28;20769;-53
2022/11/10 06:25:31;;;;;;;4.73;4.27;;;;;;;9.82;100.00;97485.09;5063652;28;20712;-56
2022/11/10 06:27:59;;;;;;;4.40;4.00;;;;;;;9.71;100.00;97500.91;5074902;28;20215;-55
2022/11/10 06:30:31;;;;;;;4.50;4.20;;;;;;;9.65;100.00;97506.66;5063322;28;20294;-56
2022/11/10 06:32:59;;;;;;;5.03;4.60;;;;;;;9.61;100.00;97507.84;5074212;28;20223;-56
2022/11/10 06:35:26;;;;;;;4.63;3.90;;;;;;;9.56;100.00;97502.09;5065086;28;20305;-56
2022/11/10 06:37:58;;;;;;;4.70;4.33;;;;;;;9.48;100.00;97493.91;5073881;28;20360;-56
2022/11/10 06:40:26;;;;;;;7.30;4.27;;;;;;;9.47;100.00;97508.03;5064906;28;20202;-55
2022/11/10 06:42:53;;;;;;;5.33;4.83;;;;;;;9.48;100.00;97507.94;5062287;28;20230;-56
2022/11/10 06:45:20;;;;;;;7.77;4.67;;;;;;;9.48;100.00;97507.09;5065603;28;20249;-54
2022/11/10 06:47:48;;;;;;;5.03;4.63;;;;;;;9.37;100.00;97512.34;5055721;28;20337;-55
2022/11/10 06:50:15;;;;;;;4.90;4.50;;;;;;;9.35;100.00;97511.63;5056116;28;20238;-55
2022/11/10 06:52:43;;;;;;;5.13;4.53;;;;;;;9.35;100.00;97524.81;5054760;28;20203;-56
2022/11/10 06:55:09;;;;;;;6.23;4.97;;;;;;;9.27;100.00;97532.47;5055969;28;20298;-56
2022/11/10 06:57:38;;;;;;;6.57;5.50;;;;;;;9.15;100.00;97543.91;5069284;28;20203;-57
2022/11/10 07:00:05;;;;;;;7.50;5.33;;;;;;;9.12;100.00;97539.69;5066830;28;20412;-56
2022/11/10 07:02:32;;;;;;;5.40;4.97;;;;;;;9.06;100.00;97534.03;5081682;28;20199;-56
2022/11/10 07:05:00;;;;;;;5.30;4.90;;;;;;;9.07;100.00;97536.53;5079864;28;20272;-55
2022/11/10 07:07:27;;;;;;;6.03;4.70;;;;;;;9.12;100.00;97539.69;5063983;28;20302;-54
2022/11/10 07:09:53;;;;;;;5.37;4.87;;;;;;;9.14;100.00;97534.31;5055143;28;20290;-55
2022/11/10 07:12:20;;;;;;;5.60;5.10;;;;;;;9.11;100.00;97534.53;5054621;28;20592;-57
2022/11/10 07:14:49;;;;;;;7.47;5.10;;;;;;;9.13;100.00;97538.75;5055205;28;20235;-55
2022/11/10 07:17:18;;;;;;;5.53;5.03;;;;;;;9.17;100.00;97542.84;5055616;28;20206;-55
2022/11/10 07:19:47;;;;;;;5.10;4.57;;;;;;;9.16;100.00;97545.59;5055495;28;20234;-54
2022/11/10 07:22:15;;;;;;;5.70;5.07;;;;;;;9.15;100.00;97554.47;5055261;28;20290;-55
2022/11/10 07:24:43;;;;;;;5.27;4.77;;;;;;;9.15;100.00;97554.47;5055596;28;20590;-56
2022/11/10 07:27:10;;;;;;;6.57;5.40;;;;;;;9.10;100.00;97567.16;5065552;28;20237;-55
2022/11/10 07:29:36;;;;;;;5.23;4.57;;;;;;;9.16;100.00;97574.63;5074224;28;20230;-55
2022/11/10 07:32:04;;;;;;;4.90;4.50;;;;;;;9.19;100.00;97574.41;5080982;28;20264;-56
2022/11/10 07:34:31;;;;;;;5.10;4.73;;;;;;;9.18;100.00;97584.09;5076771;28;20305;-56
2022/11/10 07:36:58;;;;;;;5.07;4.57;;;;;;;9.16;100.00;97583.38;5067388;28;20303;-56
2022/11/10 07:39:26;;;;;;;5.17;4.67;;;;;;;9.17;100.00;97584.22;5068133;28;20202;-56
2022/11/10 07:41:52;;;;;;;4.50;4.20;;;;;;;9.22;100.00;97595.28;5057163;28;20302;-54
2022/11/10 07:44:19;;;;;;;4.73;4.00;;;;;;;9.29;100.00;97599.16;5054871;28;20303;-56
2022/11/10 07:46:46;;;;;;;4.77;4.10;;;;;;;9.34;100.00;97595.25;5054313;28;20274;-56
2022/11/10 07:49:13;;;;;;;4.70;4.30;;;;;;;9.38;100.00;97602.00;5071022;28;20310;-56
2022/11/10 07:51:39;;;;;;;4.53;4.03;;;;;;;9.42;100.00;97603.44;5074442;28;20217;-56
2022/11/10 07:54:06;;;;;;;4.00;3.70;;;;;;;9.48;100.00;97605.63;5073913;28;20284;-57
2022/11/10 07:56:34;;;;;;;5.43;4.87;;;;;;;9.54;100.00;97604.34;5074041;28;20615;-53
2022/11/10 07:59:01;;;;;;;4.57;4.17;;;;;;;9.64;100.00;97621.19;5061603;28;20210;-56
2022/11/10 08:01:28;;;;;;;6.77;6.07;;;;;;;9.72;100.00;97621.47;5074307;28;20234;-56
2022/11/10 08:03:55;;;;;;;5.93;5.50;;;;;;;9.81;100.00;97619.94;5075828;28;20286;-55
2022/11/10 08:06:21;;;;;;;5.83;5.33;;;;;;;9.90;100.00;97628.03;5074702;28;20226;-57
2022/11/10 08:08:48;;;;;;;6.50;5.87;;;;;;;10.02;100.00;97633.34;5070890;28;20293;-55
2022/11/10 08:11:15;;;;;;;7.50;4.83;;;;;;;10.09;100.00;97627.47;5074350;28;20226;-55
2022/11/10 08:13:43;;;;;;;8.47;4.20;;;;;;;10.18;100.00;97626.81;5074418;28;20650;-54
2022/11/10 08:16:10;;;;;;;4.17;3.57;;;;;;;10.29;100.00;97639.22;5064081;28;20258;-56
2022/11/10 08:18:37;;;;;;;8.07;4.03;;;;;;;10.35;100.00;97628.16;5054099;28;20558;-55
2022/11/10 08:21:05;;;;;;;5.13;3.50;;;;;;;10.41;100.00;97636.47;5054251;28;20249;-54
2022/11/10 08:23:32;;;;;;;6.57;3.97;;;;;;;10.42;100.00;97639.94;5053978;28;20313;-55
2022/11/10 08:25:59;;;;;;;6.80;3.57;;;;;;;10.38;100.00;97649.09;5054202;28;20243;-55
2022/11/10 08:28:26;;;;;;;5.97;3.83;;;;;;;10.44;100.00;97654.75;5054257;28;20290;-55
2022/11/10 08:30:55;;;;;;;7.13;4.30;;;;;;;10.49;100.00;97654.38;5053496;28;20238;-56
2022/11/10 08:33:22;;;;;;;6.77;5.37;;;;;;;10.58;100.00;97656.34;5054482;28;20239;-55
2022/11/10 08:35:51;;;;;;;7.20;4.90;;;;;;;10.63;100.00;97659.44;5054982;28;20349;-56
2022/11/10 08:38:20;;;;;;;7.63;5.73;;;;;;;10.69;100.00;97655.50;5054074;28;20590;-56
2022/11/10 08:40:47;;;;;;;6.83;5.70;;;;;;;10.77;100.00;97656.56;5056049;28;20217;-55
2022/11/10 08:43:14;;;;;;;6.23;5.13;;;;;;;10.84;100.00;97676.31;5070564;28;20285;-55
2022/11/10 08:45:42;;;;;;;9.43;6.00;;;;;;;10.95;100.00;97671.03;5060464;28;20211;-55
2022/11/10 08:48:13;;;;;;;6.67;5.10;;;;;;;11.27;100.00;97668.47;5054418;28;20298;-55
2022/11/10 08:50:40;;;;;;;5.47;4.80;;;;;;;11.58;100.00;97668.69;5054881;28;20241;-55
2022/11/10 08:53:09;;;;;;;6.77;5.33;;;;;;;11.84;100.00;97676.22;5067878;28;20297;-56
2022/11/10 08:55:36;;;;;;;7.47;5.43;;;;;;;12.12;100.00;97673.91;5057338;28;20225;-53
2022/11/10 08:58:04;;;;;;;8.47;5.83;;;;;;;12.35;100.00;97675.50;5058318;28;20294;-54
2022/11/10 09:00:33;;;;;;;8.63;5.93;;;;;;;12.70;100.00;97680.47;5057571;28;20211;-56
2022/11/10 09:03:04;;;;;;;8.30;5.40;;;;;;;12.74;100.00;97689.88;5057266;28;20291;-56
2022/11/10 09:05:35;;;;;;;5.43;4.93;;;;;;;12.69;100.00;97687.59;5057832;28;20273;-56
2022/11/10 09:08:02;;;;;;;5.83;5.03;;;;;;;12.66;100.00;97690.53;5057691;28;20329;-55
2022/11/10 09:10:29;;;;;;;5.67;5.07;;;;;;;12.45;100.00;97693.19;5061518;28;20206;-54
2022/11/10 09:12:59;;;;;;;5.33;4.93;;;;;;;12.39;100.00;97703.47;5067002;28;20274;-55
2022/11/10 09:15:26;;;;;;;7.07;5.00;;;;;;;12.27;100.00;97709.78;5074984;28;20201;-55
2022/11/10 09:17:55;;;;;;;7.07;4.37;;;;;;;12.17;100.00;97719.47;5066053;28;20258;-55
2022/11/10 09:20:22;;;;;;;5.37;4.50;;;;;;;12.12;100.00;97719.00;5076101;28;20265;-56
2022/11/10 09:22:51;;;;;;;5.30;4.80;;;;;;;12.08;100.00;97728.19;5076897;28;20199;-56
2022/11/10 09:25:18;;;;;;;4.67;4.00;;;;;;;11.94;100.00;97732.78;5076431;28;20632;-56
2022/11/10 09:27:44;;;;;;;5.37;3.70;;;;;;;11.93;100.00;97723.19;5077444;28;20296;-54
2022/11/10 09:30:12;;;;;;;5.90;4.00;;;;;;;11.94;100.00;97716.03;5057938;28;20285;-55
2022/11/10 09:32:38;;;;;;;5.83;3.90;;;;;;;11.96;100.00;97717.63;5059530;28;20753;-55
2022/11/10 09:35:06;;;;;;;4.43;3.67;;;;;;;11.96;100.00;97720.28;5058038;28;20227;-57
2022/11/10 09:37:38;;;;;;;5.23;3.87;;;;;;;12.01;100.00;97716.41;5070804;28;20206;-58
2022/11/10 09:40:15;;;;;;;6.20;4.13;;;;;;;12.02;100.00;97723.38;5077037;28;20293;-56
2022/11/10 09:42:42;;;;;;;5.93;4.90;;;;;;;11.91;100.00;97730.41;5062093;28;20249;-56
2022/11/10 09:45:18;;;;;;;7.53;5.23;;;;;;;11.94;100.00;97724.00;5059075;28;20301;-56
2022/11/10 09:47:50;;;;;;;6.87;4.87;;;;;;;11.99;100.00;97721.81;5063213;28;20246;-56
2022/11/10 09:50:21;;;;;;;7.03;4.57;;;;;;;12.08;100.00;97714.94;5065213;28;20227;-56
2022/11/10 09:52:49;;;;;;;7.10;5.10;;;;;;;12.30;100.00;97725.44;5058609;28;20258;-57
2022/11/10 09:55:26;;;;;;;5.00;4.60;;;;;;;12.55;100.00;97724.22;5075207;28;20203;-57
2022/11/10 09:57:55;;;;;;;5.73;4.90;;;;;;;12.64;100.00;97723.47;5070310;28;20230;-57
2022/11/10 10:00:22;;;;;;;4.80;4.40;;;;;;;12.74;100.00;97730.53;5065202;28;20238;-57
2022/11/10 10:02:51;;;;;;;6.80;5.50;;;;;;;12.63;100.00;97732.41;5064920;28;20226;-57
2022/11/10 10:05:50;;;;;;;6.67;6.07;;;;;;;12.54;100.00;97734.00;5062632;28;20266;-55
2022/11/10 10:08:23;;;;;;;7.37;6.67;;;;;;;12.39;100.00;97737.94;5060702;28;20212;-54
2022/11/10 10:10:56;;;;;;;10.33;8.37;;;;;;;12.27;100.00;97736.31;5057514;28;20234;-57
2022/11/10 10:13:38;;;;;;;9.30;8.40;;;;;;;12.13;100.00;97724.19;5057072;28;20291;-55
2022/11/10 10:16:12;;;;;;;8.50;7.80;;;;;;;12.14;100.00;97735.63;5066873;28;20277;-56
2022/11/10 10:18:42;;;;;;;8.03;7.43;;;;;;;12.19;100.00;97731.63;5071508;28;20202;-56
2022/11/10 10:21:24;;;;;;;8.30;7.57;;;;;;;12.17;100.00;97730.94;5067871;28;20281;-55
2022/11/10 10:23:52;;;;;;;8.77;8.00;;;;;;;12.21;100.00;97740.31;5067747;28;20313;-55
2022/11/10 10:26:25;;;;;;;7.97;7.27;;;;;;;12.23;100.00;97740.19;5056178;28;20612;-55
2022/11/10 10:28:52;;;;;;;9.37;8.47;;;;;;;12.22;100.00;97738.50;5055647;28;20289;-54
2022/11/10 10:31:20;;;;;;;9.07;8.10;;;;;;;12.20;100.00;97735.97;5067431;28;20648;-56
2022/11/10 10:33:47;;;;;;;8.10;7.40;;;;;;;12.22;100.00;97743.81;5064688;28;20233;-56
2022/11/10 10:36:17;;;;;;;7.57;6.87;;;;;;;12.26;100.00;97743.41;5073031;28;20298;-55
2022/11/10 10:38:45;;;;;;;8.17;7.33;;;;;;;12.28;100.00;97748.59;5055457;28;20290;-56
2022/11/10 10:41:15;;;;;;;7.67;6.97;;;;;;;12.33;100.00;97746.41;5057994;28;20712;-54
2022/11/10 10:43:47;;;;;;;8.00;7.10;;;;;;;12.43;100.00;97747.34;5055549;28;20273;-55
2022/11/10 10:46:15;;;;;;;8.57;7.20;;;;;;;12.57;100.00;97747.03;5056162;28;20275;-55
2022/11/10 10:48:44;;;;;;;8.70;7.37;;;;;;;12.97;100.00;97747.97;5055738;28;20544;-55
2022/11/10 10:51:11;;;;;;;9.27;7.23;;;;;;;13.40;100.00;97749.63;5055377;28;20213;-57
2022/11/10 10:53:46;;;;;;;8.73;7.90;;;;;;;13.69;100.00;97761.22;5054824;28;20626;-54
2022/11/10 10:56:18;;;;;;;8.57;7.70;;;;;;;13.93;100.00;97759.03;5055729;28;20201;-54
2022/11/10 10:58:53;;;;;;;7.03;6.43;;;;;;;14.10;100.00;97764.69;5055687;28;20202;-55
2022/11/10 11:01:25;;;;;;;7.13;6.33;;;;;;;14.08;100.00;97751.50;5063404;28;20228;-55
2022/11/10 11:03:52;;;;;;;6.53;5.93;;;;;;;13.92;99.62;97760.00;5073840;28;20290;-56
2022/11/10 11:06:24;;;;;;;5.53;5.07;;;;;;;13.64;98.71;97758.09;5075751;28;20317;-57
2022/11/10 11:08:56;;;;;;;6.00;5.43;;;;;;;13.56;99.82;97762.44;5055550;28;20298;-56
2022/11/10 11:11:28;;;;;;;5.50;4.80;;;;;;;13.44;99.22;97769.66;5064125;28;20282;-55
2022/11/10 11:14:15;;;;;;;5.50;4.50;;;;;;;13.35;100.00;97759.84;5074256;28;20206;-56
2022/11/10 11:16:47;;;;;;;4.50;4.20;;;;;;;13.32;100.00;97768.06;5073219;28;20252;-55
2022/11/10 11:19:14;;;;;;;4.97;4.57;;;;;;;13.32;100.00;97755.59;5055303;28;20225;-56
2022/11/10 11:21:49;;;;;;;4.60;4.23;;;;;;;13.28;100.00;97761.34;5054925;28;20262;-58
2022/11/10 11:24:21;;;;;;;4.33;3.93;;;;;;;13.28;100.00;97751.56;5054911;28;20281;-56
2022/11/10 11:26:52;;;;;;;5.33;4.13;;;;;;;13.24;100.00;97749.28;5054510;28;20302;-55
2022/11/10 11:29:41;;;;;;;4.80;4.40;;;;;;;13.07;100.00;97748.06;5055263;28;20285;-55
2022/11/10 11:32:20;;;;;;;4.43;4.03;;;;;;;13.11;100.00;97753.97;5054288;28;20240;-54
2022/11/10 11:34:58;;;;;;;4.03;3.50;;;;;;;13.22;100.00;97754.72;5055207;28;20245;-54
2022/11/10 11:37:31;;;;;;;5.23;4.23;;;;;;;13.25;100.00;97756.28;5054284;28;20234;-56
2022/11/10 11:40:07;;;;;;;5.10;3.90;;;;;;;13.20;100.00;97759.34;5054963;28;20202;-56
2022/11/10 11:42:45;;;;;;;4.47;4.07;;;;;;;13.34;100.00;97744.84;5057303;28;20235;-56
2022/11/10 11:45:18;;;;;;;4.27;3.73;;;;;;;13.43;100.00;97738.72;5054397;28;20673;-55
2022/11/10 11:47:55;;;;;;;5.37;4.20;;;;;;;13.68;100.00;97740.91;5054678;28;20389;-55
2022/11/10 11:50:28;;;;;;;5.17;4.77;;;;;;;13.87;100.00;97737.47;5055035;28;20282;-55
2022/11/10 11:53:01;;;;;;;5.37;4.87;;;;;;;13.91;100.00;97749.53;5060670;28;20654;-56
2022/11/10 11:55:50;;;;;;;6.68;4.65;;;;;;;13.93;100.00;97748.41;5074616;28;20191;-56
2022/11/10 11:58:26;;;;;;;3.77;3.47;;;;;;;13.86;100.00;97744.59;5074231;28;20229;-57
2022/11/10 12:01:01;;;;;;;4.40;4.03;;;;;;;13.83;100.00;97746.69;5073786;28;20216;-56
2022/11/10 12:03:54;;;;;;;4.47;4.07;;;;;;;13.86;100.00;97736.63;5075259;28;20267;-57
2022/11/10 12:06:36;;;;;;;4.37;3.90;;;;;;;13.86;100.00;97741.94;5083605;28;20207;-56
2022/11/10 12:09:11;;;;;;;4.80;4.40;;;;;;;13.77;100.00;97737.47;5075070;28;20183;-56
2022/11/10 12:11:51;;;;;;;4.40;4.00;;;;;;;13.76;100.00;97746.41;5068744;28;20276;-57
2022/11/10 12:14:23;;;;;;;4.47;4.13;;;;;;;13.87;100.00;97742.78;5071914;28;20179;-57